createdAt,value
2019-03-11T00:00:14.171Z,13.39
2019-03-11T00:02:43.675Z,13.26
2019-03-11T00:05:13.257Z,13.13
2019-03-11T00:07:42.788Z,13.03
2019-03-11T00:10:12.332Z,12.98
2019-03-11T00:12:41.856Z,12.91
2019-03-11T00:15:11.399Z,12.93
2019-03-11T00:17:40.905Z,12.90
2019-03-11T00:20:10.472Z,12.88
2019-03-11T00:22:39.959Z,12.85
2019-03-11T00:25:09.505Z,12.82
2019-03-11T00:27:39.036Z,12.78
2019-03-11T00:30:09.166Z,12.70
2019-03-11T00:32:38.726Z,12.58
2019-03-11T00:35:08.271Z,12.57
2019-03-11T00:37:37.820Z,12.53
2019-03-11T00:40:07.826Z,12.53
2019-03-11T00:42:37.375Z,12.60
2019-03-11T00:45:08.391Z,12.58
2019-03-11T00:47:37.951Z,12.59
2019-03-11T00:50:08.213Z,12.59
2019-03-11T00:52:37.829Z,12.60
2019-03-11T00:55:07.661Z,12.63
2019-03-11T00:57:37.223Z,12.67
2019-03-11T01:00:08.398Z,12.95
2019-03-11T01:02:37.942Z,13.60
2019-03-11T01:05:07.505Z,13.98
2019-03-11T01:07:37.062Z,14.40
2019-03-11T01:10:06.651Z,14.49
2019-03-11T01:12:36.188Z,14.53
2019-03-11T01:15:05.976Z,14.59
2019-03-11T01:17:35.509Z,14.48
2019-03-11T01:20:05.176Z,14.42
2019-03-11T01:22:34.730Z,14.34
2019-03-11T01:25:05.135Z,14.40
2019-03-11T01:27:34.791Z,14.53
2019-03-11T01:30:04.370Z,14.56
2019-03-11T01:32:33.914Z,14.58
2019-03-11T01:35:03.498Z,14.59
2019-03-11T01:37:33.038Z,14.72
2019-03-11T01:40:02.615Z,14.76
2019-03-11T01:42:32.152Z,14.78
2019-03-11T01:45:01.691Z,14.66
2019-03-11T01:47:31.233Z,14.59
2019-03-11T01:50:00.747Z,14.56
2019-03-11T01:52:30.305Z,14.57
2019-03-11T01:54:59.849Z,14.62
2019-03-11T01:57:29.392Z,14.87
2019-03-11T01:59:58.910Z,14.88
2019-03-11T02:02:28.466Z,14.83
2019-03-11T02:04:57.972Z,14.80
2019-03-11T02:07:27.487Z,14.85
2019-03-11T02:09:57.030Z,14.90
2019-03-11T02:12:26.586Z,14.95
2019-03-11T02:14:56.107Z,15.02
2019-03-11T02:17:25.650Z,15.03
2019-03-11T02:19:55.186Z,14.99
2019-03-11T02:22:24.837Z,15.13
2019-03-11T02:24:54.372Z,15.20
2019-03-11T02:27:23.918Z,15.26
2019-03-11T02:29:53.435Z,15.26
2019-03-11T02:32:22.993Z,15.24
2019-03-11T02:34:52.529Z,15.37
2019-03-11T02:37:22.086Z,15.45
2019-03-11T02:39:51.643Z,15.52
2019-03-11T02:42:21.364Z,15.50
2019-03-11T02:44:51.037Z,15.48
2019-03-11T02:47:20.564Z,15.56
2019-03-11T02:49:50.120Z,15.63
2019-03-11T02:52:19.655Z,15.72
2019-03-11T02:54:49.353Z,15.72
2019-03-11T02:57:18.871Z,15.74
2019-03-11T02:59:48.419Z,15.85
2019-03-11T03:02:46.099Z,15.78
2019-03-11T03:05:19.858Z,15.76
2019-03-11T03:07:49.374Z,15.73
2019-03-11T03:10:18.901Z,15.77
2019-03-11T03:12:48.481Z,15.75
2019-03-11T03:15:18.003Z,15.70
2019-03-11T03:17:47.535Z,15.62
2019-03-11T03:20:17.058Z,15.69
2019-03-11T03:22:46.601Z,15.68
2019-03-11T03:25:16.120Z,15.72
2019-03-11T03:27:45.684Z,15.71
2019-03-11T03:30:16.674Z,15.79
2019-03-11T03:32:46.269Z,15.86
2019-03-11T03:35:16.216Z,15.87
2019-03-11T03:37:45.709Z,15.79
2019-03-11T03:40:15.292Z,15.74
2019-03-11T03:42:44.923Z,15.71
2019-03-11T03:45:34.826Z,15.49
2019-03-11T03:48:04.525Z,15.40
2019-03-11T03:50:36.194Z,15.55
2019-03-11T03:53:05.746Z,15.62
2019-03-11T03:55:35.298Z,15.48
2019-03-11T03:58:04.838Z,15.34
2019-03-11T04:00:34.388Z,15.14
2019-03-11T04:03:04.114Z,15.00
2019-03-11T04:05:33.635Z,14.77
2019-03-11T04:08:03.196Z,14.59
2019-03-11T04:10:33.273Z,14.43
2019-03-11T04:13:02.849Z,14.43
2019-03-11T04:15:32.385Z,14.39
2019-03-11T04:18:01.964Z,14.51
2019-03-11T04:20:31.485Z,14.43
2019-03-11T04:23:01.043Z,14.43
2019-03-11T04:25:31.262Z,14.27
2019-03-11T04:28:00.851Z,14.30
2019-03-11T04:30:30.388Z,14.34
2019-03-11T04:32:59.913Z,14.47
2019-03-11T04:35:29.454Z,14.45
2019-03-11T04:37:59.003Z,14.41
2019-03-11T04:40:28.528Z,14.42
2019-03-11T04:42:58.106Z,14.39
2019-03-11T04:45:27.751Z,14.42
2019-03-11T04:47:57.287Z,14.55
2019-03-11T04:50:26.867Z,14.64
2019-03-11T04:52:56.391Z,14.88
2019-03-11T04:55:25.978Z,14.84
2019-03-11T04:57:55.660Z,14.85
2019-03-11T05:00:27.155Z,15.10
2019-03-11T05:02:56.913Z,15.18
2019-03-11T05:05:26.554Z,15.26
2019-03-11T05:07:56.244Z,15.29
2019-03-11T05:10:25.872Z,15.53
2019-03-11T05:12:55.436Z,15.88
2019-03-11T05:15:25.085Z,16.03
2019-03-11T05:17:54.768Z,16.27
2019-03-11T05:20:24.390Z,16.39
2019-03-11T05:22:55.071Z,16.60
2019-03-11T05:25:24.743Z,17.19
2019-03-11T05:27:54.323Z,17.71
2019-03-11T05:30:24.030Z,18.28
2019-03-11T05:32:53.583Z,18.52
2019-03-11T05:35:23.115Z,18.83
2019-03-11T05:37:52.679Z,19.14
2019-03-11T05:40:22.237Z,19.45
2019-03-11T05:42:51.799Z,19.70
2019-03-11T05:45:21.338Z,20.51
2019-03-11T05:47:50.888Z,21.27
2019-03-11T05:50:20.446Z,21.70
2019-03-11T05:52:50.005Z,22.03
2019-03-11T05:55:19.554Z,22.03
2019-03-11T05:57:49.083Z,22.03
2019-03-11T06:00:22.575Z,21.56
2019-03-11T06:02:52.099Z,20.88
2019-03-11T06:05:21.636Z,20.94
2019-03-11T06:07:51.154Z,21.30
2019-03-11T06:10:20.737Z,20.82
2019-03-11T06:12:50.265Z,20.20
2019-03-11T06:15:19.848Z,19.91
2019-03-11T06:17:49.508Z,19.97
2019-03-11T06:20:56.349Z,19.56
2019-03-11T06:23:25.858Z,19.33
2019-03-11T06:25:55.383Z,19.04
2019-03-11T06:28:24.901Z,18.94
2019-03-11T06:30:54.497Z,18.84
2019-03-11T06:33:24.035Z,18.89
2019-03-11T06:35:53.574Z,18.81
2019-03-11T06:38:23.135Z,18.67
2019-03-11T06:40:52.675Z,18.61
2019-03-11T06:43:22.230Z,18.57
2019-03-11T06:45:51.781Z,18.84
2019-03-11T06:48:21.393Z,18.99
2019-03-11T06:50:50.992Z,19.09
2019-03-11T06:53:20.507Z,19.36
2019-03-11T06:55:50.020Z,19.43
2019-03-11T06:58:19.685Z,19.41
2019-03-11T07:00:49.327Z,19.43
2019-03-11T07:03:18.868Z,19.23
2019-03-11T07:05:48.389Z,19.06
2019-03-11T07:08:17.928Z,18.82
2019-03-11T07:10:47.447Z,18.95
2019-03-11T07:13:16.993Z,19.14
2019-03-11T07:15:46.537Z,19.41
2019-03-11T07:18:16.089Z,19.49
2019-03-11T07:20:45.624Z,19.86
2019-03-11T07:23:15.168Z,19.98
2019-03-11T07:25:44.707Z,20.10
2019-03-11T07:28:14.276Z,20.01
2019-03-11T07:30:43.815Z,20.16
2019-03-11T07:33:13.343Z,20.14
2019-03-11T07:35:42.864Z,20.19
2019-03-11T07:38:12.456Z,20.40
2019-03-11T07:40:41.992Z,20.12
2019-03-11T07:43:11.577Z,20.17
2019-03-11T07:45:41.114Z,19.76
2019-03-11T07:48:10.682Z,19.45
2019-03-11T07:50:40.199Z,19.31
2019-03-11T07:53:09.732Z,19.41
2019-03-11T07:55:39.255Z,19.50
2019-03-11T07:58:08.789Z,19.30
2019-03-11T08:00:38.321Z,19.11
2019-03-11T08:03:07.950Z,18.97
2019-03-11T08:05:37.524Z,19.04
2019-03-11T08:08:07.097Z,18.93
2019-03-11T08:10:36.656Z,18.83
2019-03-11T08:13:08.013Z,19.11
2019-03-11T08:15:37.557Z,19.22
2019-03-11T08:18:07.079Z,19.19
2019-03-11T08:20:36.651Z,19.12
2019-03-11T08:23:06.186Z,19.30
2019-03-11T08:25:35.713Z,19.60
2019-03-11T08:28:05.242Z,19.60
2019-03-11T08:30:34.829Z,19.94
2019-03-11T08:33:04.374Z,20.48
2019-03-11T08:35:33.931Z,20.86
2019-03-11T08:38:05.240Z,21.37
2019-03-11T08:40:34.786Z,22.18
2019-03-11T08:43:04.393Z,22.24
2019-03-11T08:45:33.989Z,22.34
2019-03-11T08:48:03.552Z,22.50
2019-03-11T08:50:33.098Z,22.94
2019-03-11T08:53:02.662Z,22.51
2019-03-11T08:55:32.249Z,21.91
2019-03-11T08:58:01.790Z,21.78
2019-03-11T09:00:31.360Z,21.42
2019-03-11T09:03:00.906Z,21.01
2019-03-11T09:05:30.476Z,20.94
2019-03-11T09:07:59.998Z,21.40
2019-03-11T09:10:29.576Z,21.07
2019-03-11T09:12:59.159Z,21.03
2019-03-11T09:15:28.700Z,21.22
2019-03-11T09:17:58.252Z,21.87
2019-03-11T09:20:27.784Z,21.97
2019-03-11T09:22:57.329Z,21.52
2019-03-11T09:25:26.846Z,20.93
2019-03-11T09:27:56.397Z,20.35
2019-03-11T09:30:25.950Z,20.63
2019-03-11T09:32:55.508Z,20.94
2019-03-11T09:35:25.044Z,21.15
2019-03-11T09:37:54.589Z,21.02
2019-03-11T09:40:24.134Z,20.86
2019-03-11T09:42:53.704Z,20.92
2019-03-11T09:45:24.436Z,20.95
2019-03-11T09:47:54.713Z,20.97
2019-03-11T09:50:24.376Z,20.93
2019-03-11T09:52:53.976Z,20.76
2019-03-11T09:55:23.527Z,20.72
2019-03-11T09:57:53.077Z,21.05
2019-03-11T10:00:23.173Z,21.41
2019-03-11T10:02:53.544Z,22.00
2019-03-11T10:05:23.402Z,22.51
2019-03-11T10:07:53.079Z,22.22
2019-03-11T10:10:22.704Z,22.25
2019-03-11T10:12:52.255Z,22.36
2019-03-11T10:15:21.814Z,22.99
2019-03-11T10:17:51.372Z,22.76
2019-03-11T10:20:20.933Z,22.65
2019-03-11T10:22:50.474Z,22.90
2019-03-11T10:25:20.024Z,23.47
2019-03-11T10:27:49.563Z,23.41
2019-03-11T10:30:19.150Z,22.59
2019-03-11T10:32:48.729Z,22.75
2019-03-11T10:35:33.541Z,22.71
2019-03-11T10:37:49.563Z,22.97
2019-03-11T10:40:20.445Z,23.20
2019-03-11T10:42:50.035Z,23.38
2019-03-11T10:45:30.335Z,23.33
2019-03-11T10:47:50.940Z,23.28
2019-03-11T10:50:20.503Z,22.94
2019-03-11T10:52:50.064Z,22.95
2019-03-11T10:55:19.715Z,22.77
2019-03-11T10:57:49.269Z,22.92
2019-03-11T11:00:22.115Z,22.68
2019-03-11T11:02:51.734Z,23.14
2019-03-11T11:05:21.265Z,23.27
2019-03-11T11:07:52.982Z,23.30
2019-03-11T11:10:22.523Z,23.38
2019-03-11T11:12:52.081Z,23.06
2019-03-11T11:15:22.447Z,23.41
2019-03-11T11:17:52.049Z,24.16
2019-03-11T11:20:21.599Z,24.27
2019-03-11T11:22:51.270Z,23.66
2019-03-11T11:25:20.832Z,23.47
2019-03-11T11:27:50.403Z,23.49
2019-03-11T11:30:21.255Z,23.62
2019-03-11T11:32:50.810Z,22.99
2019-03-11T11:35:20.343Z,23.30
2019-03-11T11:37:49.926Z,23.03
2019-03-11T11:40:21.560Z,22.87
2019-03-11T11:42:51.309Z,22.55
2019-03-11T11:45:21.333Z,22.82
2019-03-11T11:47:50.853Z,22.30
2019-03-11T11:50:21.051Z,21.85
2019-03-11T11:52:50.598Z,21.99
2019-03-11T11:55:20.353Z,22.09
2019-03-11T11:57:49.944Z,22.11
2019-03-11T12:00:22.415Z,21.86
2019-03-11T12:02:51.956Z,22.20
2019-03-11T12:05:21.518Z,22.54
2019-03-11T12:07:51.076Z,22.79
2019-03-11T12:10:21.142Z,22.24
2019-03-11T12:12:50.680Z,22.52
2019-03-11T12:15:20.315Z,22.70
2019-03-11T12:17:49.869Z,22.84
2019-03-11T12:20:21.070Z,22.53
2019-03-11T12:22:52.827Z,22.87
2019-03-11T12:25:22.407Z,22.80
2019-03-11T12:27:54.199Z,23.29
2019-03-11T12:30:24.803Z,23.77
2019-03-11T12:32:54.399Z,23.16
2019-03-11T12:35:23.956Z,22.72
2019-03-11T12:37:53.610Z,22.79
2019-03-11T12:40:23.172Z,22.48
2019-03-11T12:42:52.721Z,22.05
2019-03-11T12:45:22.310Z,21.80
2019-03-11T12:47:51.805Z,21.52
2019-03-11T12:50:21.949Z,21.73
2019-03-11T12:52:51.571Z,21.88
2019-03-11T12:55:21.871Z,21.50
2019-03-11T12:57:51.662Z,21.35
2019-03-11T13:00:21.209Z,21.26
2019-03-11T13:02:50.841Z,21.13
2019-03-11T13:05:20.397Z,20.89
2019-03-11T13:07:49.950Z,20.76
2019-03-11T13:10:20.473Z,20.84
2019-03-11T13:12:50.012Z,20.80
2019-03-11T13:15:19.551Z,20.50
2019-03-11T13:17:49.095Z,20.25
2019-03-11T13:20:25.015Z,20.48
2019-03-11T13:22:54.589Z,20.41
2019-03-11T13:25:24.122Z,20.54
2019-03-11T13:27:53.665Z,20.66
2019-03-11T13:30:23.204Z,20.18
2019-03-11T13:32:52.746Z,20.28
2019-03-11T13:35:22.267Z,20.30
2019-03-11T13:37:51.825Z,20.41
2019-03-11T13:40:21.410Z,20.29
2019-03-11T13:42:50.939Z,20.20
2019-03-11T13:45:20.478Z,20.22
2019-03-11T13:47:50.028Z,20.23
2019-03-11T13:50:19.592Z,20.24
2019-03-11T13:52:49.139Z,19.99
2019-03-11T13:55:21.738Z,19.88
2019-03-11T13:57:51.279Z,19.57
2019-03-11T14:00:20.851Z,19.54
2019-03-11T14:02:50.376Z,19.69
2019-03-11T14:05:19.902Z,19.64
2019-03-11T14:07:49.431Z,19.63
2019-03-11T14:10:18.989Z,19.73
2019-03-11T14:12:48.512Z,19.80
2019-03-11T14:15:18.113Z,19.83
2019-03-11T14:17:47.641Z,19.63
2019-03-11T14:20:17.236Z,19.61
2019-03-11T14:22:46.760Z,19.59
2019-03-11T14:25:16.366Z,19.71
2019-03-11T14:27:45.908Z,19.40
2019-03-11T14:30:15.478Z,19.29
2019-03-11T14:32:45.076Z,19.14
2019-03-11T14:35:14.631Z,18.86
2019-03-11T14:37:44.193Z,18.84
2019-03-11T14:40:13.793Z,18.69
2019-03-11T14:42:43.357Z,18.34
2019-03-11T14:45:14.289Z,18.30
2019-03-11T14:47:43.947Z,18.22
2019-03-11T14:50:13.543Z,18.07
2019-03-11T14:52:43.085Z,18.12
2019-03-11T14:55:12.619Z,17.83
2019-03-11T14:57:42.161Z,17.78
2019-03-11T15:00:14.052Z,17.68
2019-03-11T15:02:43.684Z,17.61
2019-03-11T15:05:13.289Z,17.56
2019-03-11T15:07:42.832Z,17.57
2019-03-11T15:10:13.173Z,17.48
2019-03-11T15:12:42.711Z,17.43
2019-03-11T15:15:14.179Z,17.27
2019-03-11T15:17:43.711Z,17.23
2019-03-11T15:20:13.623Z,17.19
2019-03-11T15:22:43.173Z,17.13
2019-03-11T15:25:12.864Z,17.03
2019-03-11T15:27:42.551Z,16.92
2019-03-11T15:30:14.303Z,16.86
2019-03-11T15:32:43.855Z,16.77
2019-03-11T15:35:13.404Z,16.70
2019-03-11T15:37:42.965Z,16.56
2019-03-11T15:40:13.106Z,16.43
2019-03-11T15:42:42.783Z,16.44
2019-03-11T15:45:14.309Z,16.40
2019-03-11T15:47:43.868Z,16.32
2019-03-11T15:50:15.673Z,16.27
2019-03-11T15:52:45.210Z,16.26
2019-03-11T15:55:15.609Z,16.16
2019-03-11T15:57:45.157Z,16.15
2019-03-11T16:00:17.159Z,16.17
2019-03-11T16:02:46.739Z,16.12
2019-03-11T16:05:17.078Z,16.05
2019-03-11T16:07:46.636Z,16.06
2019-03-11T16:10:17.408Z,15.93
2019-03-11T16:12:47.192Z,15.87
2019-03-11T16:15:16.749Z,15.82
2019-03-11T16:17:46.445Z,15.80
2019-03-11T16:20:16.391Z,15.72
2019-03-11T16:22:46.000Z,15.57
2019-03-11T16:25:15.554Z,15.56
2019-03-11T16:27:45.091Z,15.49
2019-03-11T16:30:16.844Z,15.47
2019-03-11T16:32:58.550Z,15.39
2019-03-11T16:35:17.804Z,15.39
2019-03-11T16:37:47.350Z,15.32
2019-03-11T16:40:16.917Z,15.24
2019-03-11T16:42:46.473Z,15.17
2019-03-11T16:45:17.076Z,15.11
2019-03-11T16:47:46.637Z,15.11
2019-03-11T16:50:16.737Z,15.08
2019-03-11T16:52:46.275Z,15.01
2019-03-11T16:55:17.496Z,15.01
2019-03-11T16:57:47.071Z,15.01
2019-03-11T17:00:22.162Z,14.87
2019-03-11T17:02:52.136Z,14.84
2019-03-11T17:05:21.776Z,14.80
2019-03-11T17:07:51.329Z,14.74
2019-03-11T17:10:21.003Z,14.73
2019-03-11T17:12:50.520Z,14.64
2019-03-11T17:15:20.070Z,14.61
2019-03-11T17:17:49.606Z,14.59
2019-03-11T17:20:19.172Z,14.53
2019-03-11T17:22:48.739Z,14.51
2019-03-11T17:25:18.295Z,14.47
2019-03-11T17:27:47.947Z,14.41
2019-03-11T17:30:17.595Z,14.34
2019-03-11T17:32:47.149Z,14.27
2019-03-11T17:35:16.835Z,14.24
2019-03-11T17:37:46.448Z,14.22
2019-03-11T17:40:16.727Z,14.22
2019-03-11T17:42:46.427Z,14.16
2019-03-11T17:45:16.019Z,14.15
2019-03-11T17:47:45.545Z,14.06
2019-03-11T17:50:15.415Z,14.10
2019-03-11T17:52:45.004Z,14.07
2019-03-11T17:55:15.044Z,14.02
2019-03-11T17:57:44.599Z,14.01
2019-03-11T18:00:19.623Z,13.94
2019-03-11T18:02:49.207Z,13.91
2019-03-11T18:05:18.833Z,13.91
2019-03-11T18:07:48.372Z,13.84
2019-03-11T18:10:18.013Z,13.85
2019-03-11T18:12:47.703Z,13.83
2019-03-11T18:15:17.324Z,13.78
2019-03-11T18:17:47.001Z,13.75
2019-03-11T18:20:16.580Z,13.79
2019-03-11T18:22:46.267Z,13.75
2019-03-11T18:25:15.976Z,13.70
2019-03-11T18:27:45.588Z,13.69
2019-03-11T18:30:17.706Z,13.63
2019-03-11T18:32:49.399Z,13.53
2019-03-11T18:35:19.065Z,13.52
2019-03-11T18:37:48.741Z,13.53
2019-03-11T18:40:18.532Z,13.47
2019-03-11T18:42:48.188Z,13.44
2019-03-11T18:45:17.804Z,13.35
2019-03-11T18:47:47.413Z,13.29
2019-03-11T18:50:16.968Z,13.28
2019-03-11T18:52:46.564Z,13.24
2019-03-11T18:55:16.332Z,13.17
2019-03-11T18:57:46.007Z,13.14
2019-03-11T19:00:17.067Z,13.05
2019-03-11T19:02:46.573Z,13.05
2019-03-11T19:05:16.694Z,13.02
2019-03-11T19:07:46.269Z,12.98
2019-03-11T19:10:16.071Z,12.98
2019-03-11T19:12:45.655Z,12.90
2019-03-11T19:15:16.179Z,12.89
2019-03-11T19:17:45.831Z,12.84
2019-03-11T19:20:17.144Z,12.75
2019-03-11T19:22:46.726Z,12.71
2019-03-11T19:25:16.309Z,12.66
2019-03-11T19:27:45.863Z,12.61
2019-03-11T19:30:17.251Z,12.61
2019-03-11T19:32:46.753Z,12.60
2019-03-11T19:35:16.980Z,12.57
2019-03-11T19:37:46.594Z,12.50
2019-03-11T19:40:16.658Z,12.47
2019-03-11T19:42:46.280Z,12.46
2019-03-11T19:45:16.037Z,12.38
2019-03-11T19:47:45.691Z,12.30
2019-03-11T19:50:15.354Z,12.29
2019-03-11T19:52:57.282Z,12.28
2019-03-11T19:55:16.343Z,12.28
2019-03-11T19:57:45.931Z,12.27
2019-03-11T20:00:17.259Z,12.22
2019-03-11T20:02:46.950Z,12.16
2019-03-11T20:05:18.069Z,12.09
2019-03-11T20:07:47.817Z,11.99
2019-03-11T20:10:17.487Z,11.92
2019-03-11T20:12:47.244Z,11.83
2019-03-11T20:15:16.879Z,11.69
2019-03-11T20:17:46.970Z,11.63
2019-03-11T20:20:17.145Z,11.55
2019-03-11T20:22:46.883Z,11.49
2019-03-11T20:25:20.341Z,11.25
2019-03-11T20:27:50.074Z,10.99
2019-03-11T20:30:20.690Z,10.82
2019-03-11T20:32:50.411Z,10.72
2019-03-11T20:35:19.987Z,10.70
2019-03-11T20:37:49.756Z,10.70
2019-03-11T20:40:19.346Z,10.68
2019-03-11T20:42:49.070Z,10.69
2019-03-11T20:45:18.700Z,10.65
2019-03-11T20:47:48.323Z,10.61
2019-03-11T20:50:17.967Z,10.60
2019-03-11T20:52:47.937Z,10.55
2019-03-11T20:55:17.630Z,10.55
2019-03-11T20:57:47.375Z,10.51
2019-03-11T21:00:18.744Z,10.35
2019-03-11T21:02:48.419Z,10.25
2019-03-11T21:05:19.523Z,10.23
2019-03-11T21:07:49.176Z,10.18
2019-03-11T21:10:19.349Z,10.06
2019-03-11T21:12:49.040Z,10.09
2019-03-11T21:15:18.715Z,10.02
2019-03-11T21:17:48.430Z,9.88
2019-03-11T21:20:18.186Z,9.86
2019-03-11T21:22:47.986Z,9.88
2019-03-11T21:25:17.940Z,9.83
2019-03-11T21:27:47.561Z,9.79
2019-03-11T21:30:19.085Z,9.71
2019-03-11T21:32:48.746Z,9.67
2019-03-11T21:35:18.310Z,9.65
2019-03-11T21:37:48.076Z,9.57
2019-03-11T21:40:18.424Z,9.58
2019-03-11T21:42:48.057Z,9.51
2019-03-11T21:45:17.604Z,9.44
2019-03-11T21:47:49.573Z,9.43
2019-03-11T21:50:20.223Z,9.42
2019-03-11T21:52:49.842Z,9.31
2019-03-11T21:55:19.518Z,9.21
2019-03-11T21:57:49.242Z,9.18
2019-03-11T22:00:32.766Z,9.23
2019-03-11T22:02:53.197Z,9.23
2019-03-11T22:05:22.834Z,9.21
2019-03-11T22:07:52.360Z,9.21
2019-03-11T22:10:21.903Z,9.08
2019-03-11T22:12:51.621Z,9.10
2019-03-11T22:15:21.153Z,8.99
2019-03-11T22:17:50.684Z,8.98
2019-03-11T22:20:20.226Z,8.98
2019-03-11T22:22:49.746Z,8.89
2019-03-11T22:25:19.354Z,8.86
2019-03-11T22:27:48.890Z,8.88
2019-03-11T22:30:19.518Z,8.87
2019-03-11T22:32:49.069Z,8.86
2019-03-11T22:35:18.713Z,8.89
2019-03-11T22:37:48.354Z,8.96
2019-03-11T22:40:18.228Z,8.94
2019-03-11T22:42:47.853Z,8.93
2019-03-11T22:45:19.634Z,8.94
2019-03-11T22:47:49.549Z,8.89
2019-03-11T22:50:19.119Z,8.80
2019-03-11T22:52:48.766Z,8.66
2019-03-11T22:55:18.311Z,8.65
2019-03-11T22:57:47.942Z,8.60
2019-03-11T23:00:41.919Z,8.57
2019-03-11T23:03:11.676Z,8.57
2019-03-11T23:05:56.617Z,8.49
2019-03-11T23:08:12.515Z,8.44
2019-03-11T23:10:42.199Z,8.36
2019-03-11T23:13:11.919Z,8.26
2019-03-11T23:15:41.459Z,8.13
2019-03-11T23:18:11.153Z,8.12
2019-03-11T23:20:40.730Z,8.04
2019-03-11T23:23:11.290Z,7.94
2019-03-11T23:25:40.806Z,7.82
2019-03-11T23:28:10.470Z,7.78
2019-03-11T23:30:40.133Z,7.71
2019-03-11T23:33:09.891Z,7.66
2019-03-11T23:35:39.536Z,7.62
2019-03-11T23:38:09.088Z,7.60
2019-03-11T23:40:38.756Z,7.58
2019-03-11T23:43:08.436Z,7.51
2019-03-11T23:45:38.028Z,7.44
2019-03-11T23:48:07.723Z,7.37
2019-03-11T23:50:37.254Z,7.31
2019-03-11T23:53:06.864Z,7.26
2019-03-11T23:55:36.417Z,7.25
2019-03-11T23:58:05.999Z,7.20
